Time;durP1;ratioP1;P1;durP2;ratioP2;P2;SDS_P1;SDS_P2;PMS_P1;PMS_P2;Temp;Humidity;BMP_temperature;BMP_pressure;BME280_temperature;BME280_humidity;BME280_pressure;Samples;Min_cycle;Max_cycle;Signal;HPM_P1;HPM_P2
2022/03/18 00:02:03;;;;;;;7.75;1.25;;;2.60;99.90;;;;;;5095109;28;20077;-73
2022/03/18 00:04:29;;;;;;;10.52;1.15;;;2.60;99.90;;;;;;5094810;28;20016;-73
2022/03/18 00:06:55;;;;;;;4.18;1.00;;;2.60;99.90;;;;;;5096191;28;20055;-73
2022/03/18 00:09:21;;;;;;;9.40;1.35;;;2.60;99.90;;;;;;5094516;28;20035;-73
2022/03/18 00:11:46;;;;;;;8.77;1.10;;;2.60;99.90;;;;;;5095886;28;20024;-73
2022/03/18 00:14:14;;;;;;;8.02;1.80;;;2.60;99.90;;;;;;5095814;28;20028;-73
2022/03/18 00:16:40;;;;;;;4.50;1.02;;;2.60;99.90;;;;;;5094417;28;20401;-73
2022/03/18 00:19:06;;;;;;;3.92;0.52;;;2.60;99.90;;;;;;5096041;28;20115;-73
2022/03/18 00:21:34;;;;;;;7.43;1.75;;;2.60;99.90;;;;;;5095685;28;20020;-73
2022/03/18 00:24:01;;;;;;;4.85;0.95;;;2.60;99.90;;;;;;5095970;28;20040;-73
2022/03/18 00:26:27;;;;;;;7.45;1.10;;;2.60;99.90;;;;;;5095188;28;20381;-73
2022/03/18 00:28:52;;;;;;;2.72;0.70;;;2.60;99.90;;;;;;5095189;28;20028;-73
2022/03/18 00:31:18;;;;;;;6.95;1.50;;;2.50;99.90;;;;;;5095523;28;20070;-73
2022/03/18 00:33:44;;;;;;;2.28;0.73;;;2.40;99.90;;;;;;5095405;28;20024;-73
2022/03/18 00:36:09;;;;;;;5.32;1.15;;;2.40;99.90;;;;;;5094218;28;20012;-73
2022/03/18 00:38:35;;;;;;;8.43;1.33;;;2.50;99.90;;;;;;5093991;28;20024;-73
2022/03/18 00:41:01;;;;;;;7.60;1.85;;;2.50;99.90;;;;;;5095432;28;20069;-73
2022/03/18 00:43:27;;;;;;;6.07;1.15;;;2.40;99.90;;;;;;5094003;28;20073;-73
2022/03/18 00:45:52;;;;;;;6.15;1.35;;;2.40;99.90;;;;;;5095781;28;20020;-73
2022/03/18 00:53:46;;;;;;;5.43;2.05;;;2.30;99.90;;;;;;5095928;28;20105;-73
2022/03/18 00:56:11;;;;;;;7.30;1.08;;;2.30;99.90;;;;;;5093768;28;20020;-73
2022/03/18 00:58:37;;;;;;;5.57;1.35;;;2.30;99.90;;;;;;5094848;28;20031;-73
2022/03/18 01:01:02;;;;;;;7.68;1.60;;;2.20;99.90;;;;;;5093631;28;20024;-73
2022/03/18 01:03:28;;;;;;;8.43;1.45;;;2.20;99.90;;;;;;5094868;28;20069;-73
2022/03/18 01:05:54;;;;;;;5.05;1.58;;;2.20;99.90;;;;;;5094804;28;20089;-73
2022/03/18 01:08:19;;;;;;;4.68;1.00;;;2.20;99.90;;;;;;5094680;28;20486;-73
2022/03/18 01:10:45;;;;;;;5.68;1.08;;;2.20;99.90;;;;;;5094723;28;20024;-73
2022/03/18 01:13:11;;;;;;;9.30;1.08;;;2.20;99.90;;;;;;5095101;28;20028;-73
2022/03/18 01:15:37;;;;;;;5.70;1.20;;;2.20;99.90;;;;;;5094725;28;20052;-73
2022/03/18 01:18:03;;;;;;;5.88;1.35;;;2.20;99.90;;;;;;5094555;28;20567;-73
2022/03/18 01:20:29;;;;;;;2.33;0.80;;;2.10;99.90;;;;;;5094694;28;20054;-73
2022/03/18 01:22:55;;;;;;;6.63;0.95;;;2.00;99.90;;;;;;5094615;28;20491;-73
2022/03/18 01:25:20;;;;;;;8.13;1.00;;;2.00;99.90;;;;;;5095426;28;20024;-73
2022/03/18 01:27:46;;;;;;;5.18;0.75;;;1.90;99.90;;;;;;5093036;28;20038;-73
2022/03/18 01:30:18;;;;;;;6.80;1.10;;;2.00;99.90;;;;;;5094968;28;20042;-73
2022/03/18 01:32:44;;;;;;;8.35;1.27;;;1.80;99.90;;;;;;5094439;28;20028;-73
2022/03/18 01:35:10;;;;;;;3.67;1.20;;;2.00;99.90;;;;;;5094331;28;20028;-73
2022/03/18 01:37:36;;;;;;;7.55;1.30;;;2.00;99.90;;;;;;5094124;28;20032;-73
2022/03/18 01:40:01;;;;;;;8.52;1.60;;;1.90;99.90;;;;;;5094859;28;20023;-73
2022/03/18 01:42:27;;;;;;;9.77;2.53;;;1.90;99.90;;;;;;5093199;28;20017;-73
2022/03/18 01:44:52;;;;;;;21.48;2.30;;;1.90;99.90;;;;;;5094627;28;20035;-73
2022/03/18 01:47:18;;;;;;;10.68;1.50;;;1.90;99.90;;;;;;5094490;28;20150;-74
2022/03/18 01:49:44;;;;;;;7.22;1.63;;;1.80;99.90;;;;;;5094158;28;20024;-74
2022/03/18 01:52:11;;;;;;;13.38;1.75;;;1.80;99.90;;;;;;5094570;28;20081;-73
2022/03/18 01:54:49;;;;;;;5.88;1.17;;;1.80;99.90;;;;;;5094373;28;20477;-73
2022/03/18 01:57:23;;;;;;;9.07;1.20;;;1.80;99.90;;;;;;5094198;28;20377;-73
2022/03/18 01:59:51;;;;;;;6.97;1.40;;;1.80;99.90;;;;;;5092617;28;20016;-73
2022/03/18 02:02:17;;;;;;;6.75;1.23;;;1.80;99.90;;;;;;5093846;28;20030;-74
2022/03/18 02:04:44;;;;;;;14.13;1.67;;;1.80;99.90;;;;;;5093762;28;20109;-74
2022/03/18 02:07:11;;;;;;;6.65;1.23;;;1.70;99.90;;;;;;5092515;28;20020;-74
2022/03/18 02:09:37;;;;;;;5.30;1.73;;;1.70;99.90;;;;;;5092254;28;20028;-73
2022/03/18 02:12:04;;;;;;;7.82;1.15;;;1.70;99.90;;;;;;5093888;28;20077;-73
2022/03/18 02:14:50;;;;;;;8.85;1.13;;;1.70;99.90;;;;;;5093627;28;20397;-73
2022/03/18 02:17:16;;;;;;;7.43;1.13;;;1.60;99.90;;;;;;5093557;28;20040;-74
2022/03/18 02:19:44;;;;;;;5.20;1.00;;;1.60;99.90;;;;;;5093793;28;20414;-74
2022/03/18 02:22:11;;;;;;;6.95;1.75;;;1.60;99.90;;;;;;5092240;28;20020;-74
2022/03/18 02:24:41;;;;;;;4.78;1.88;;;1.50;99.90;;;;;;5092208;28;20115;-74
2022/03/18 02:27:06;;;;;;;6.65;1.23;;;1.50;99.90;;;;;;5093756;28;20024;-74
2022/03/18 02:29:32;;;;;;;5.70;0.80;;;1.50;99.90;;;;;;5093595;28;20077;-74
2022/03/18 02:31:59;;;;;;;11.25;1.92;;;1.40;99.90;;;;;;5093421;28;20478;-74
2022/03/18 02:34:27;;;;;;;11.15;1.50;;;1.40;99.90;;;;;;5093468;28;20070;-74
2022/03/18 02:36:52;;;;;;;5.40;1.08;;;1.40;99.90;;;;;;5093848;28;20081;-74
2022/03/18 02:39:18;;;;;;;4.80;0.70;;;1.40;99.90;;;;;;5092064;28;20024;-74
2022/03/18 02:41:43;;;;;;;6.68;2.20;;;1.30;99.90;;;;;;5093611;28;20053;-74
2022/03/18 02:44:09;;;;;;;12.05;1.95;;;1.40;99.90;;;;;;5093314;28;20024;-74
2022/03/18 02:46:35;;;;;;;8.98;1.50;;;1.30;99.90;;;;;;5093739;28;20399;-74
2022/03/18 02:49:02;;;;;;;7.78;1.73;;;1.30;99.90;;;;;;5093226;28;20031;-74
2022/03/18 02:51:28;;;;;;;6.28;1.38;;;1.30;99.90;;;;;;5096479;28;20102;-74
2022/03/18 02:53:54;;;;;;;7.55;1.20;;;1.30;99.90;;;;;;5097667;28;20046;-74
2022/03/18 02:56:20;;;;;;;7.45;1.48;;;1.30;99.90;;;;;;5097291;28;20028;-74
2022/03/18 02:58:45;;;;;;;7.53;1.70;;;1.20;99.90;;;;;;5096267;28;20120;-74
2022/03/18 03:01:11;;;;;;;8.13;1.20;;;1.20;99.90;;;;;;5097542;28;20069;-74
2022/03/18 03:03:37;;;;;;;11.23;1.80;;;1.20;99.90;;;;;;5097235;28;20024;-74
2022/03/18 03:08:46;;;;;;;6.68;1.50;;;1.20;99.90;;;;;;5096964;28;20043;-76
2022/03/18 03:11:12;;;;;;;15.85;1.73;;;1.20;99.90;;;;;;5097665;28;20028;-76
2022/03/18 03:13:37;;;;;;;9.82;1.42;;;1.20;99.90;;;;;;5095896;28;20016;-76
2022/03/18 03:16:04;;;;;;;2.97;1.45;;;1.20;99.90;;;;;;5097054;28;20027;-75
2022/03/18 03:18:29;;;;;;;6.38;1.40;;;1.20;99.90;;;;;;5096682;28;20032;-75
2022/03/18 03:20:55;;;;;;;6.97;1.02;;;1.10;99.90;;;;;;5096886;28;20023;-75
2022/03/18 03:23:23;;;;;;;4.57;1.42;;;1.10;99.90;;;;;;5095917;28;20070;-76
2022/03/18 03:25:50;;;;;;;10.27;1.33;;;1.00;99.90;;;;;;5095599;28;20110;-75
2022/03/18 03:28:17;;;;;;;4.20;1.20;;;1.00;99.90;;;;;;5097002;28;20024;-75
2022/03/18 03:30:43;;;;;;;5.13;1.15;;;1.00;99.90;;;;;;5096744;28;20419;-76
2022/03/18 03:33:09;;;;;;;6.82;1.67;;;0.90;99.90;;;;;;5095456;28;20396;-76
2022/03/18 03:35:36;;;;;;;8.48;1.48;;;0.90;99.90;;;;;;5096622;28;20099;-76
2022/03/18 03:38:02;;;;;;;9.13;1.98;;;0.90;99.90;;;;;;5096428;28;20016;-76
2022/03/18 03:40:27;;;;;;;8.20;1.92;;;0.90;99.90;;;;;;5096798;28;20027;-76
2022/03/18 03:42:53;;;;;;;5.18;1.60;;;0.90;99.90;;;;;;5096720;28;20016;-76
2022/03/18 03:45:19;;;;;;;9.88;1.70;;;0.90;99.90;;;;;;5096763;28;20028;-76
2022/03/18 03:47:44;;;;;;;4.95;1.08;;;0.90;99.90;;;;;;5095254;28;20032;-75
2022/03/18 03:50:11;;;;;;;11.98;1.77;;;1.00;99.90;;;;;;5097039;28;20358;-75
2022/03/18 03:52:37;;;;;;;7.43;1.20;;;1.00;99.90;;;;;;5096839;28;20492;-75
2022/03/18 03:55:04;;;;;;;6.30;1.27;;;1.00;99.90;;;;;;5094986;28;20035;-75
2022/03/18 03:57:30;;;;;;;5.82;1.45;;;1.00;99.90;;;;;;5096077;28;20034;-75
2022/03/18 03:59:55;;;;;;;8.00;1.33;;;1.00;99.90;;;;;;5094899;28;20016;-75
2022/03/18 04:02:22;;;;;;;8.10;1.60;;;1.00;99.90;;;;;;5095209;28;20016;-75
2022/03/18 04:04:48;;;;;;;4.80;1.80;;;1.00;99.90;;;;;;5096379;28;20086;-75
2022/03/18 04:07:14;;;;;;;6.88;1.30;;;1.00;99.90;;;;;;5096032;28;20036;-75
2022/03/18 04:09:39;;;;;;;19.90;3.05;;;0.90;99.90;;;;;;5095838;28;20030;-75
2022/03/18 04:12:05;;;;;;;11.30;1.58;;;0.90;99.90;;;;;;5094703;28;20016;-75
2022/03/18 04:14:30;;;;;;;7.38;1.80;;;0.90;99.90;;;;;;5095092;28;20073;-75
2022/03/18 04:16:56;;;;;;;9.48;1.95;;;0.90;99.90;;;;;;5095815;28;20028;-75
2022/03/18 04:19:21;;;;;;;6.15;1.48;;;0.90;99.90;;;;;;5095735;28;20020;-75
2022/03/18 04:21:47;;;;;;;7.57;2.58;;;0.90;99.90;;;;;;5095758;28;20016;-75
2022/03/18 04:24:13;;;;;;;7.57;1.67;;;0.90;99.90;;;;;;5094457;28;20119;-75
2022/03/18 04:26:38;;;;;;;7.53;1.55;;;0.80;99.90;;;;;;5096184;28;20439;-75
2022/03/18 04:29:08;;;;;;;8.32;2.28;;;0.80;99.90;;;;;;5095853;28;20020;-75
2022/03/18 04:31:34;;;;;;;9.32;1.70;;;0.80;99.90;;;;;;5094270;28;20020;-76
2022/03/18 04:34:00;;;;;;;4.90;1.60;;;0.80;99.90;;;;;;5095712;28;20103;-76
2022/03/18 04:36:25;;;;;;;8.00;1.13;;;0.90;99.90;;;;;;5095845;28;20477;-76
2022/03/18 04:38:51;;;;;;;7.57;1.42;;;0.80;99.90;;;;;;5095445;28;20024;-76
2022/03/18 04:41:16;;;;;;;9.35;2.25;;;0.80;99.90;;;;;;5094183;28;20023;-76
2022/03/18 04:43:42;;;;;;;7.30;2.13;;;0.70;99.90;;;;;;5094163;28;20059;-76
2022/03/18 04:46:08;;;;;;;3.50;1.23;;;0.70;99.90;;;;;;5094401;28;20028;-74
2022/03/18 04:48:33;;;;;;;6.88;1.55;;;0.70;99.90;;;;;;5093916;28;20222;-74
2022/03/18 04:50:59;;;;;;;8.02;1.42;;;0.60;99.90;;;;;;5093955;28;20051;-73
2022/03/18 04:53:24;;;;;;;5.10;1.42;;;0.60;99.90;;;;;;5095178;28;20035;-74
2022/03/18 04:55:50;;;;;;;5.38;1.73;;;0.70;99.90;;;;;;5095027;28;20035;-77
2022/03/18 04:58:15;;;;;;;12.93;2.08;;;0.60;99.90;;;;;;5093574;28;20028;-77
2022/03/18 05:00:41;;;;;;;11.35;1.75;;;0.60;99.90;;;;;;5095036;28;20403;-74
2022/03/18 05:03:09;;;;;;;8.40;1.65;;;0.60;99.90;;;;;;5094829;28;20045;-74
2022/03/18 05:05:35;;;;;;;6.40;1.58;;;0.60;99.90;;;;;;5095126;28;20381;-74
2022/03/18 05:08:00;;;;;;;6.38;1.88;;;0.70;99.90;;;;;;5094710;28;20028;-73
2022/03/18 05:10:26;;;;;;;4.53;1.45;;;0.70;99.90;;;;;;5093600;28;20034;-73
2022/03/18 05:12:53;;;;;;;7.90;1.67;;;0.70;99.90;;;;;;5093136;28;20017;-74
2022/03/18 05:15:19;;;;;;;6.28;1.60;;;0.70;99.90;;;;;;5094684;28;20084;-73
2022/03/18 05:17:50;;;;;;;6.45;1.92;;;0.60;99.90;;;;;;5093249;28;20116;-73
2022/03/18 05:20:15;;;;;;;11.27;2.20;;;0.60;99.90;;;;;;5094978;28;20415;-73
2022/03/18 05:22:41;;;;;;;5.63;2.05;;;0.60;99.90;;;;;;5094625;28;20141;-73
2022/03/18 05:25:09;;;;;;;8.85;2.13;;;0.70;99.90;;;;;;5094816;28;20048;-73
2022/03/18 05:27:40;;;;;;;8.85;2.70;;;0.60;99.90;;;;;;5094430;28;20107;-74
2022/03/18 05:30:06;;;;;;;9.60;2.63;;;0.60;99.90;;;;;;5094426;28;20035;-74
2022/03/18 05:32:31;;;;;;;13.70;2.58;;;0.60;99.90;;;;;;5094312;28;20031;-74
2022/03/18 05:34:57;;;;;;;10.07;2.38;;;0.50;99.90;;;;;;5093129;28;20424;-74
2022/03/18 05:37:22;;;;;;;7.35;2.10;;;0.50;99.90;;;;;;5092976;28;20117;-74
2022/03/18 05:39:48;;;;;;;6.07;1.77;;;0.50;99.90;;;;;;5094339;28;20020;-74
2022/03/18 05:42:13;;;;;;;8.45;2.58;;;0.50;99.90;;;;;;5094486;28;20020;-74
2022/03/18 05:44:39;;;;;;;9.68;2.70;;;0.50;99.90;;;;;;5092945;28;20431;-74
2022/03/18 05:47:08;;;;;;;6.63;2.25;;;0.50;99.90;;;;;;5092835;28;20031;-74
2022/03/18 05:49:33;;;;;;;17.80;2.80;;;0.50;99.90;;;;;;5094134;28;20035;-75
2022/03/18 05:51:59;;;;;;;9.05;2.30;;;0.50;99.90;;;;;;5092839;28;20130;-74
2022/03/18 05:54:24;;;;;;;10.98;2.88;;;0.50;99.90;;;;;;5093928;28;20126;-74
2022/03/18 05:56:53;;;;;;;7.18;2.15;;;0.50;99.90;;;;;;5092583;28;20073;-74
2022/03/18 05:59:19;;;;;;;4.88;2.08;;;0.50;99.90;;;;;;5094116;28;20438;-74
2022/03/18 06:01:45;;;;;;;10.85;2.95;;;0.50;99.90;;;;;;5093823;28;20044;-75
2022/03/18 06:04:12;;;;;;;9.23;2.10;;;0.50;99.90;;;;;;5092612;28;20063;-74
2022/03/18 06:06:39;;;;;;;11.68;1.98;;;0.50;99.90;;;;;;5092517;28;20013;-74
2022/03/18 06:11:49;;;;;;;15.57;3.40;;;0.50;99.90;;;;;;5093789;28;20051;-74
2022/03/18 06:14:16;;;;;;;7.45;2.38;;;0.60;99.90;;;;;;5093908;28;20016;-73
2022/03/18 06:16:42;;;;;;;12.77;4.05;;;0.60;99.90;;;;;;5093558;28;20028;-74
2022/03/18 06:19:09;;;;;;;17.52;4.00;;;0.60;99.90;;;;;;5093629;28;20370;-76
2022/03/18 06:21:34;;;;;;;7.30;3.15;;;0.60;99.90;;;;;;5092338;28;20020;-76
2022/03/18 06:24:00;;;;;;;11.68;3.55;;;0.70;99.90;;;;;;5093703;28;20032;-75
2022/03/18 06:26:25;;;;;;;9.30;3.45;;;0.80;99.90;;;;;;5093388;28;20099;-76
2022/03/18 06:28:51;;;;;;;13.30;5.40;;;0.90;99.90;;;;;;5094809;28;20103;-78
2022/03/18 06:31:16;;;;;;;9.25;4.65;;;1.00;99.90;;;;;;5096581;28;20024;-77
2022/03/18 06:33:44;;;;;;;13.02;4.35;;;1.10;99.90;;;;;;5097174;28;20120;-77
2022/03/18 06:36:11;;;;;;;11.02;4.63;;;1.10;99.90;;;;;;5096936;28;20477;-78
2022/03/18 06:38:36;;;;;;;12.10;4.63;;;1.20;99.90;;;;;;5094940;28;20110;-74
2022/03/18 06:41:02;;;;;;;10.70;4.82;;;1.30;99.90;;;;;;5093334;28;20104;-74
2022/03/18 06:43:27;;;;;;;9.88;4.65;;;1.40;99.90;;;;;;5092010;28;20016;-74
2022/03/18 06:45:53;;;;;;;10.60;4.38;;;1.50;99.90;;;;;;5093534;28;20081;-74
2022/03/18 06:48:18;;;;;;;14.27;4.22;;;1.60;99.90;;;;;;5094203;28;20078;-76
2022/03/18 06:50:44;;;;;;;13.68;4.13;;;1.70;99.90;;;;;;5094019;28;20030;-76
2022/03/18 06:53:09;;;;;;;12.60;4.82;;;1.80;99.90;;;;;;5093355;28;20024;-76
2022/03/18 06:55:35;;;;;;;11.73;4.50;;;2.00;99.90;;;;;;5093267;28;20473;-75
2022/03/18 06:58:01;;;;;;;18.80;4.82;;;2.10;99.90;;;;;;5091917;28;20016;-75
2022/03/18 07:00:27;;;;;;;16.13;4.55;;;2.20;99.90;;;;;;5093195;28;20477;-75
2022/03/18 07:02:53;;;;;;;12.63;4.60;;;2.40;99.90;;;;;;5093501;28;20107;-76
2022/03/18 07:05:19;;;;;;;16.63;5.43;;;2.50;99.90;;;;;;5093331;28;20363;-75
2022/03/18 07:07:44;;;;;;;14.30;5.30;;;2.60;99.90;;;;;;5093052;28;20027;-75
2022/03/18 07:10:12;;;;;;;13.85;5.80;;;2.70;99.90;;;;;;5093161;28;20028;-75
2022/03/18 07:12:38;;;;;;;19.67;6.75;;;2.90;99.90;;;;;;5093149;28;20495;-75
2022/03/18 07:15:05;;;;;;;15.88;6.32;;;3.40;99.90;;;;;;5093571;28;20050;-74
2022/03/18 07:20:14;;;;;;;20.05;7.65;;;3.30;99.90;;;;;;5093738;28;20031;-73
2022/03/18 07:22:41;;;;;;;19.05;7.72;;;3.50;99.90;;;;;;5092956;28;20445;-73
2022/03/18 07:25:07;;;;;;;20.77;7.45;;;3.70;99.90;;;;;;5093108;28;20048;-74
2022/03/18 07:27:33;;;;;;;20.88;8.40;;;3.80;99.90;;;;;;5092885;28;20400;-74
2022/03/18 07:29:59;;;;;;;22.58;8.93;;;3.90;99.90;;;;;;5092993;28;20028;-74
2022/03/18 07:32:24;;;;;;;21.02;8.38;;;4.10;99.90;;;;;;5092924;28;20017;-73
2022/03/18 07:34:50;;;;;;;27.17;9.65;;;4.20;99.90;;;;;;5092835;28;20024;-74
2022/03/18 07:37:16;;;;;;;20.83;8.25;;;4.40;99.90;;;;;;5095141;28;20028;-74
2022/03/18 07:39:41;;;;;;;22.65;8.85;;;4.60;99.90;;;;;;5096879;28;20020;-74
2022/03/18 07:42:07;;;;;;;20.65;8.98;;;4.80;99.90;;;;;;5096614;28;20474;-73
2022/03/18 07:44:34;;;;;;;23.48;9.10;;;4.90;99.90;;;;;;5096570;28;20028;-74
2022/03/18 07:47:00;;;;;;;24.55;9.32;;;5.10;99.90;;;;;;5096875;28;20441;-74
2022/03/18 07:49:26;;;;;;;22.75;9.15;;;5.20;99.90;;;;;;5096653;28;20043;-74
2022/03/18 07:51:51;;;;;;;22.00;9.13;;;5.30;99.90;;;;;;5095144;28;20020;-73
2022/03/18 07:54:17;;;;;;;23.48;9.38;;;5.40;99.90;;;;;;5095236;28;20051;-73
2022/03/18 07:56:43;;;;;;;23.10;8.60;;;5.60;99.90;;;;;;5094960;28;20536;-74
2022/03/18 07:59:08;;;;;;;27.27;9.63;;;5.70;99.90;;;;;;5096189;28;20072;-74
2022/03/18 08:01:35;;;;;;;22.58;8.07;;;5.90;99.90;;;;;;5096438;28;20099;-74
2022/03/18 08:04:00;;;;;;;25.98;8.90;;;6.10;99.90;;;;;;5094913;28;20024;-72
2022/03/18 08:06:26;;;;;;;22.20;8.10;;;6.20;99.90;;;;;;5094901;28;20020;-73
2022/03/18 08:08:52;;;;;;;16.63;7.22;;;6.40;99.90;;;;;;5095917;28;20040;-74
2022/03/18 08:11:17;;;;;;;20.42;7.03;;;6.50;99.90;;;;;;5094758;28;20473;-73
2022/03/18 08:13:45;;;;;;;21.65;8.23;;;6.70;99.90;;;;;;5094721;28;20024;-73
2022/03/18 08:16:12;;;;;;;18.70;6.32;;;6.80;99.90;;;;;;5094798;28;20012;-73
2022/03/18 08:18:37;;;;;;;17.33;7.22;;;7.00;99.90;;;;;;5096301;28;20025;-73
2022/03/18 08:21:03;;;;;;;18.75;6.68;;;7.20;99.90;;;;;;5095790;28;20081;-73
2022/03/18 08:23:31;;;;;;;22.58;7.38;;;7.30;99.90;;;;;;5095840;28;20028;-73
2022/03/18 08:25:56;;;;;;;19.83;6.97;;;7.50;99.90;;;;;;5095778;28;20393;-73
2022/03/18 08:28:22;;;;;;;12.80;6.03;;;7.60;99.90;;;;;;5096026;28;20024;-73
2022/03/18 08:30:48;;;;;;;9.70;3.75;;;7.80;99.90;;;;;;5095704;28;20051;-73
2022/03/18 08:33:13;;;;;;;12.70;3.28;;;8.00;99.90;;;;;;5094438;28;20017;-73
2022/03/18 08:35:41;;;;;;;10.68;3.72;;;8.20;99.90;;;;;;5096079;28;20028;-73
2022/03/18 08:38:09;;;;;;;10.33;3.87;;;8.30;99.90;;;;;;5094087;28;20028;-73
2022/03/18 08:40:37;;;;;;;11.65;2.80;;;8.50;99.90;;;;;;5094205;28;20048;-73
2022/03/18 08:43:05;;;;;;;13.85;3.25;;;8.70;99.90;;;;;;5094142;28;20048;-73
2022/03/18 08:45:31;;;;;;;10.95;3.50;;;8.80;99.90;;;;;;5095584;28;20103;-73
2022/03/18 08:47:57;;;;;;;18.00;5.47;;;8.90;99.90;;;;;;5093448;28;20115;-73
2022/03/18 08:50:24;;;;;;;9.25;2.80;;;9.20;99.90;;;;;;5095363;28;20055;-73
2022/03/18 08:52:52;;;;;;;12.18;2.90;;;9.30;99.90;;;;;;5094076;28;20481;-73
2022/03/18 08:55:17;;;;;;;6.85;2.40;;;9.40;99.90;;;;;;5095264;28;20020;-72
2022/03/18 08:57:43;;;;;;;9.80;3.03;;;9.50;99.90;;;;;;5094948;28;20027;-73
2022/03/18 09:00:11;;;;;;;8.45;2.58;;;9.70;99.90;;;;;;5094062;28;20048;-73
2022/03/18 09:02:39;;;;;;;8.50;2.15;;;9.80;99.90;;;;;;5095280;28;20020;-73
2022/03/18 09:05:06;;;;;;;8.02;1.83;;;9.90;99.90;;;;;;5095462;28;20376;-73
2022/03/18 09:07:32;;;;;;;11.20;2.45;;;10.00;99.90;;;;;;5095083;28;20419;-73
2022/03/18 09:09:58;;;;;;;10.48;2.35;;;10.20;99.90;;;;;;5093515;28;20033;-73
2022/03/18 09:12:24;;;;;;;9.52;2.85;;;10.30;99.90;;;;;;5094869;28;20024;-73
2022/03/18 09:14:49;;;;;;;6.10;1.70;;;10.40;99.90;;;;;;5095102;28;20016;-73
2022/03/18 09:17:15;;;;;;;11.45;1.65;;;10.50;99.90;;;;;;5094732;28;20500;-73
2022/03/18 09:19:42;;;;;;;11.10;1.83;;;10.60;99.90;;;;;;5093371;28;20031;-73
2022/03/18 09:22:08;;;;;;;4.95;1.20;;;10.80;99.90;;;;;;5093341;28;20028;-73
2022/03/18 09:24:36;;;;;;;8.73;1.77;;;10.90;99.90;;;;;;5094531;28;20497;-73
2022/03/18 09:27:02;;;;;;;7.20;1.83;;;11.00;99.90;;;;;;5093301;28;20023;-73
2022/03/18 09:29:28;;;;;;;3.58;1.52;;;11.20;99.90;;;;;;5094441;28;20020;-73
2022/03/18 09:31:54;;;;;;;5.25;1.27;;;11.30;99.90;;;;;;5094399;28;20024;-73
2022/03/18 09:34:24;;;;;;;7.72;1.85;;;11.40;99.90;;;;;;5094274;28;20016;-73
2022/03/18 09:36:51;;;;;;;6.93;1.75;;;11.50;99.90;;;;;;5094184;28;20419;-73
2022/03/18 09:39:16;;;;;;;6.95;1.75;;;11.60;99.90;;;;;;5094368;28;20016;-73
2022/03/18 09:41:42;;;;;;;9.82;1.98;;;11.70;99.90;;;;;;5094193;28;20020;-73
2022/03/18 09:44:09;;;;;;;7.15;1.20;;;11.90;99.90;;;;;;5092879;28;20024;-73
2022/03/18 09:46:36;;;;;;;6.22;2.13;;;12.10;99.90;;;;;;5094401;28;20020;-73
2022/03/18 09:49:02;;;;;;;7.85;0.98;;;12.20;99.90;;;;;;5093019;28;20110;-73
2022/03/18 09:51:29;;;;;;;5.80;1.25;;;12.30;99.90;;;;;;5094003;28;20020;-73
2022/03/18 09:53:54;;;;;;;7.32;2.10;;;12.40;99.90;;;;;;5094117;28;20035;-73
2022/03/18 09:56:21;;;;;;;9.02;2.30;;;12.50;99.90;;;;;;5093835;28;20020;-73
2022/03/18 09:58:46;;;;;;;2.33;0.80;;;12.50;99.90;;;;;;5093968;28;20025;-73
2022/03/18 10:01:12;;;;;;;6.90;0.68;;;12.60;99.90;;;;;;5093103;28;20024;-73
2022/03/18 10:03:40;;;;;;;10.00;1.45;;;12.70;99.90;;;;;;5094110;28;20050;-73
2022/03/18 10:06:07;;;;;;;4.25;0.68;;;12.80;99.90;;;;;;5093216;28;20393;-73
2022/03/18 10:08:35;;;;;;;7.97;1.15;;;12.90;99.90;;;;;;5092768;28;20063;-73
2022/03/18 10:11:14;;;;;;;3.95;0.40;;;13.00;99.90;;;;;;5093838;28;20050;-73
2022/03/18 10:13:57;;;;;;;6.75;0.45;;;13.10;99.90;;;;;;5094792;28;20088;-73
2022/03/18 10:16:47;;;;;;;5.85;0.30;;;13.20;99.90;;;;;;5094780;28;20491;-73
2022/03/18 10:19:16;;;;;;;5.05;0.45;;;13.30;99.90;;;;;;5095463;28;20047;-73
2022/03/18 10:21:52;;;;;;;13.52;0.93;;;13.30;99.90;;;;;;5094816;28;20036;-73
2022/03/18 10:24:22;;;;;;;7.88;1.20;;;13.40;99.90;;;;;;5094871;28;20527;-73
2022/03/18 10:26:50;;;;;;;7.65;0.75;;;13.50;99.90;;;;;;5093693;28;20031;-73
2022/03/18 10:29:16;;;;;;;5.30;0.82;;;13.50;99.90;;;;;;5093319;28;20051;-73
2022/03/18 10:31:57;;;;;;;3.38;0.93;;;13.50;99.90;;;;;;5095027;28;20023;-73
2022/03/18 10:37:21;;;;;;;2.83;0.63;;;13.70;99.90;;;;;;5094253;28;20086;-73
2022/03/18 10:39:50;;;;;;;3.92;0.75;;;13.70;99.70;;;;;;5092753;28;20065;-72
2022/03/18 10:42:19;;;;;;;2.28;0.52;;;13.80;99.60;;;;;;5094341;28;20468;-75
2022/03/18 10:44:59;;;;;;;6.32;1.27;;;14.00;99.90;;;;;;5093751;28;20020;-75
2022/03/18 10:47:26;;;;;;;5.43;1.05;;;14.10;99.80;;;;;;5093576;28;20024;-75
2022/03/18 10:49:54;;;;;;;6.20;1.20;;;14.20;99.00;;;;;;5093743;28;20016;-75
2022/03/18 10:52:23;;;;;;;6.57;0.80;;;14.30;98.40;;;;;;5093520;28;20481;-75
2022/03/18 10:54:50;;;;;;;5.35;1.42;;;14.40;97.40;;;;;;5093187;28;20020;-75
2022/03/18 10:57:19;;;;;;;3.40;0.90;;;14.50;97.10;;;;;;5093325;28;20031;-75
2022/03/18 10:59:45;;;;;;;3.05;1.13;;;14.70;96.60;;;;;;5093272;28;20036;-75
2022/03/18 11:02:16;;;;;;;6.85;1.83;;;14.80;95.80;;;;;;5093345;28;20117;-75
2022/03/18 11:04:42;;;;;;;3.65;0.80;;;14.80;95.10;;;;;;5093166;28;20160;-75
2022/03/18 11:12:41;;;;;;;8.95;1.23;;;15.20;91.20;;;;;;5097098;28;20035;-75
2022/03/18 11:15:07;;;;;;;4.82;1.17;;;15.30;90.80;;;;;;5097523;28;20024;-75
2022/03/18 11:17:33;;;;;;;8.05;0.40;;;15.30;90.60;;;;;;5095304;28;20020;-75
2022/03/18 11:20:01;;;;;;;6.97;1.30;;;15.40;90.40;;;;;;5097141;28;20035;-75
2022/03/18 11:22:28;;;;;;;3.90;0.47;;;15.60;90.10;;;;;;5095857;28;20023;-75
2022/03/18 11:24:55;;;;;;;6.55;1.35;;;15.70;86.90;;;;;;5095444;28;20058;-75
2022/03/18 11:27:21;;;;;;;3.22;0.35;;;15.90;84.00;;;;;;5097038;28;20385;-75
2022/03/18 11:29:47;;;;;;;5.70;0.70;;;15.90;84.40;;;;;;5096588;28;20024;-75
2022/03/18 11:32:12;;;;;;;3.47;0.55;;;16.00;83.00;;;;;;5097151;28;20073;-75
2022/03/18 11:34:45;;;;;;;4.22;0.57;;;16.10;83.40;;;;;;5095423;28;20020;-76
2022/03/18 11:37:10;;;;;;;1.27;0.30;;;16.20;81.00;;;;;;5095611;28;20032;-75
2022/03/18 11:39:38;;;;;;;2.75;0.50;;;16.30;82.80;;;;;;5096525;28;20016;-76
2022/03/18 11:42:18;;;;;;;3.92;0.65;;;16.60;80.10;;;;;;5097013;28;20028;-76
2022/03/18 11:44:56;;;;;;;7.80;0.90;;;16.70;79.90;;;;;;5096518;28;20028;-76
2022/03/18 11:47:33;;;;;;;2.53;0.40;;;16.90;78.50;;;;;;5096480;28;20052;-76
2022/03/18 11:50:00;;;;;;;6.03;0.45;;;17.00;77.40;;;;;;5096663;28;20627;-76
2022/03/18 11:52:29;;;;;;;2.78;0.63;;;17.20;75.80;;;;;;5095038;28;20023;-76
2022/03/18 11:55:06;;;;;;;4.57;0.70;;;17.40;75.90;;;;;;5096197;28;20020;-76
2022/03/18 11:57:42;;;;;;;1.80;0.30;;;17.50;74.00;;;;;;5094755;28;20028;-75
2022/03/18 12:00:41;;;;;;;3.00;0.35;;;17.70;71.60;;;;;;5096209;28;20385;-75
2022/03/18 12:03:06;;;;;;;1.02;0.08;;;17.80;67.60;;;;;;5094901;28;20052;-75
2022/03/18 12:05:33;;;;;;;2.42;0.22;;;17.80;65.70;;;;;;5095968;28;20500;-75
2022/03/18 12:08:03;;;;;;;4.13;0.55;;;17.80;66.50;;;;;;5095844;28;20378;-75
2022/03/18 12:10:36;;;;;;;4.25;0.30;;;17.90;65.80;;;;;;5096229;28;20435;-75
2022/03/18 12:13:03;;;;;;;3.70;0.68;;;18.00;63.50;;;;;;5096190;28;20020;-75
2022/03/18 12:15:30;;;;;;;1.65;0.52;;;17.90;63.50;;;;;;5094470;28;20070;-75
2022/03/18 12:17:57;;;;;;;2.13;0.30;;;18.00;63.30;;;;;;5095677;28;20020;-75
2022/03/18 12:20:28;;;;;;;4.30;0.10;;;18.00;62.90;;;;;;5095774;28;20019;-75
2022/03/18 12:22:54;;;;;;;5.00;1.05;;;18.20;63.20;;;;;;5093371;28;20020;-75
2022/03/18 12:25:22;;;;;;;3.25;0.28;;;18.40;63.40;;;;;;5095664;28;20035;-75
2022/03/18 12:27:48;;;;;;;3.30;0.22;;;18.60;62.40;;;;;;5095779;28;20020;-75
2022/03/18 12:30:16;;;;;;;6.60;0.10;;;18.70;59.40;;;;;;5095482;28;20032;-75
2022/03/18 12:33:02;;;;;;;3.05;0.57;;;18.50;58.50;;;;;;5095785;28;20069;-75
2022/03/18 12:35:29;;;;;;;1.27;0.57;;;18.60;57.80;;;;;;5095278;28;20460;-75
2022/03/18 12:38:06;;;;;;;0.80;0.10;;;18.70;58.20;;;;;;5094214;28;20024;-75
2022/03/18 12:40:32;;;;;;;2.60;0.40;;;18.70;57.00;;;;;;5095037;28;20047;-75
2022/03/18 12:43:02;;;;;;;3.08;0.47;;;18.80;56.80;;;;;;5093564;28;20376;-75
2022/03/18 12:45:39;;;;;;;1.00;0.00;;;18.80;56.60;;;;;;5095089;28;20043;-75
2022/03/18 12:48:15;;;;;;;1.55;0.47;;;18.90;55.80;;;;;;5093724;28;20034;-75
2022/03/18 12:50:47;;;;;;;4.03;0.52;;;19.00;55.50;;;;;;5095429;28;20027;-75
2022/03/18 12:53:19;;;;;;;5.65;0.20;;;19.20;55.00;;;;;;5093926;28;20024;-75
2022/03/18 12:55:49;;;;;;;4.13;0.10;;;19.30;54.80;;;;;;5095242;28;20024;-75
2022/03/18 12:58:15;;;;;;;3.28;0.05;;;19.20;53.60;;;;;;5094779;28;20499;-75
2022/03/18 13:00:46;;;;;;;2.65;0.30;;;19.20;53.90;;;;;;5093912;28;20024;-75
2022/03/18 13:03:17;;;;;;;1.13;0.20;;;19.30;53.50;;;;;;5095540;28;20028;-75
2022/03/18 13:05:43;;;;;;;5.82;0.40;;;19.40;54.10;;;;;;5095110;28;20104;-75
2022/03/18 13:08:10;;;;;;;1.17;0.30;;;19.50;54.00;;;;;;5093418;28;20077;-75
2022/03/18 13:10:37;;;;;;;1.85;0.28;;;19.60;53.50;;;;;;5095353;28;20016;-75
2022/03/18 13:13:10;;;;;;;0.30;0.10;;;19.60;53.10;;;;;;5094649;28;20449;-75